sensor_id;sensor_type;location;lat;lon;timestamp;pressure;altitude;pressure_sealevel;temperature;humidity
22755;BME280;11544;42.020;23.094;2023-07-28T05:59:12;97297.72;;;22.50;43.02
22755;BME280;11544;42.020;23.094;2023-07-28T06:01:39;97300.22;;;21.96;44.13
22755;BME280;11544;42.020;23.094;2023-07-28T06:04:06;97288.31;;;23.20;41.64
22755;BME280;11544;42.020;23.094;2023-07-28T06:06:33;97291.75;;;22.25;44.15
22755;BME280;11544;42.020;23.094;2023-07-28T06:09:01;97290.50;;;22.73;42.77
22755;BME280;11544;42.020;23.094;2023-07-28T06:11:28;97288.41;;;22.97;42.44
22755;BME280;11544;42.020;23.094;2023-07-28T06:13:55;97294.84;;;21.64;45.25
22755;BME280;11544;42.020;23.094;2023-07-28T06:16:22;97289.75;;;22.50;42.79
22755;BME280;11544;42.020;23.094;2023-07-28T06:18:49;97290.25;;;23.39;41.33
22755;BME280;11544;42.020;23.094;2023-07-28T06:21:16;97286.88;;;23.37;41.72
22755;BME280;11544;42.020;23.094;2023-07-28T06:23:43;97284.91;;;23.70;41.02
22755;BME280;11544;42.020;23.094;2023-07-28T06:26:10;97292.47;;;24.05;39.55
22755;BME280;11544;42.020;23.094;2023-07-28T07:38:54;97234.91;;;26.75;33.40
22755;BME280;11544;42.020;23.094;2023-07-28T08:05:25;97210.88;;;27.62;30.81
22755;BME280;11544;42.020;23.094;2023-07-28T08:07:52;97209.03;;;27.71;30.09
22755;BME280;11544;42.020;23.094;2023-07-28T08:10:19;97202.09;;;27.52;30.11
22755;BME280;11544;42.020;23.094;2023-07-28T11:45:49;96894.03;;;31.72;22.39
22755;BME280;11544;42.020;23.094;2023-07-28T11:48:18;96901.31;;;31.50;22.34
22755;BME280;11544;42.020;23.094;2023-07-28T11:50:45;96895.66;;;31.66;21.68
22755;BME280;11544;42.020;23.094;2023-07-28T11:53:12;96887.81;;;31.71;22.15
22755;BME280;11544;42.020;23.094;2023-07-28T11:55:40;96891.41;;;32.06;21.75
22755;BME280;11544;42.020;23.094;2023-07-28T11:58:11;96891.16;;;32.36;21.20
22755;BME280;11544;42.020;23.094;2023-07-28T12:00:39;96887.13;;;32.19;22.02
22755;BME280;11544;42.020;23.094;2023-07-28T12:03:11;96888.09;;;32.46;22.09
22755;BME280;11544;42.020;23.094;2023-07-28T12:05:40;96874.13;;;32.71;22.38
22755;BME280;11544;42.020;23.094;2023-07-28T12:08:11;96869.53;;;31.95;21.69
22755;BME280;11544;42.020;23.094;2023-07-28T12:10:54;96862.16;;;32.45;22.19
22755;BME280;11544;42.020;23.094;2023-07-28T12:13:23;96857.25;;;31.57;22.55
22755;BME280;11544;42.020;23.094;2023-07-28T12:16:00;96853.88;;;32.05;22.27
22755;BME280;11544;42.020;23.094;2023-07-28T12:18:30;96855.81;;;32.59;22.14
22755;BME280;11544;42.020;23.094;2023-07-28T12:21:01;96854.53;;;32.14;21.89
22755;BME280;11544;42.020;23.094;2023-07-28T12:23:30;96852.44;;;31.81;22.05
22755;BME280;11544;42.020;23.094;2023-07-28T12:26:00;96849.59;;;31.39;22.40
22755;BME280;11544;42.020;23.094;2023-07-28T12:28:27;96843.34;;;31.32;22.99
22755;BME280;11544;42.020;23.094;2023-07-28T12:30:57;96842.44;;;31.68;22.95
22755;BME280;11544;42.020;23.094;2023-07-28T12:33:29;96840.06;;;32.76;22.28
22755;BME280;11544;42.020;23.094;2023-07-28T12:36:00;96834.09;;;32.87;22.46
22755;BME280;11544;42.020;23.094;2023-07-28T12:38:50;96827.50;;;32.42;22.53
22755;BME280;11544;42.020;23.094;2023-07-28T12:41:20;96821.22;;;32.89;22.32
22755;BME280;11544;42.020;23.094;2023-07-28T12:44:14;96829.56;;;33.01;21.65
22755;BME280;11544;42.020;23.094;2023-07-28T12:46:43;96823.47;;;32.66;21.68
22755;BME280;11544;42.020;23.094;2023-07-28T12:49:11;96825.91;;;31.78;21.57
22755;BME280;11544;42.020;23.094;2023-07-28T12:51:47;96816.63;;;32.15;21.82
22755;BME280;11544;42.020;23.094;2023-07-28T12:54:17;96807.59;;;32.43;22.63
22755;BME280;11544;42.020;23.094;2023-07-28T15:35:02;96727.19;;;32.93;21.72
22755;BME280;11544;42.020;23.094;2023-07-28T15:37:31;96734.44;;;32.79;21.98
22755;BME280;11544;42.020;23.094;2023-07-28T15:40:05;96726.97;;;32.81;21.80
22755;BME280;11544;42.020;23.094;2023-07-28T15:42:38;96728.19;;;32.59;21.71
22755;BME280;11544;42.020;23.094;2023-07-28T15:45:07;96731.94;;;32.71;21.79
22755;BME280;11544;42.020;23.094;2023-07-28T15:47:35;96726.94;;;32.61;21.65
22755;BME280;11544;42.020;23.094;2023-07-28T15:50:04;96739.84;;;32.73;21.31
22755;BME280;11544;42.020;23.094;2023-07-28T15:52:32;96736.69;;;32.62;21.35
22755;BME280;11544;42.020;23.094;2023-07-28T15:55:00;96734.78;;;32.49;21.36
22755;BME280;11544;42.020;23.094;2023-07-28T15:57:29;96746.44;;;32.50;21.82
22755;BME280;11544;42.020;23.094;2023-07-28T15:59:58;96743.88;;;32.35;22.09
22755;BME280;11544;42.020;23.094;2023-07-28T16:02:25;96742.44;;;32.39;21.56
22755;BME280;11544;42.020;23.094;2023-07-28T16:04:53;96751.00;;;32.56;21.54
22755;BME280;11544;42.020;23.094;2023-07-28T16:07:20;96749.69;;;32.32;22.27
22755;BME280;11544;42.020;23.094;2023-07-28T16:09:49;96744.34;;;32.52;21.86
22755;BME280;11544;42.020;23.094;2023-07-28T16:12:17;96745.25;;;32.11;22.27
22755;BME280;11544;42.020;23.094;2023-07-28T16:14:44;96741.69;;;32.04;22.14
22755;BME280;11544;42.020;23.094;2023-07-28T16:17:11;96743.13;;;32.00;22.25
22755;BME280;11544;42.020;23.094;2023-07-28T16:19:38;96744.84;;;31.73;22.37
22755;BME280;11544;42.020;23.094;2023-07-28T16:22:05;96741.44;;;31.57;22.97
22755;BME280;11544;42.020;23.094;2023-07-28T16:24:32;96729.66;;;31.65;23.06
22755;BME280;11544;42.020;23.094;2023-07-28T16:26:59;96734.94;;;31.80;23.42
22755;BME280;11544;42.020;23.094;2023-07-28T16:29:26;96733.41;;;31.36;24.05
22755;BME280;11544;42.020;23.094;2023-07-28T16:31:53;96730.56;;;32.20;22.96
22755;BME280;11544;42.020;23.094;2023-07-28T16:34:21;96731.22;;;32.36;23.37
22755;BME280;11544;42.020;23.094;2023-07-28T16:36:48;96733.53;;;32.39;23.16
22755;BME280;11544;42.020;23.094;2023-07-28T16:39:15;96731.81;;;32.18;23.43
22755;BME280;11544;42.020;23.094;2023-07-28T16:41:44;96728.03;;;32.12;23.92
22755;BME280;11544;42.020;23.094;2023-07-28T16:44:16;96734.94;;;31.80;24.06
22755;BME280;11544;42.020;23.094;2023-07-28T18:14:30;96804.19;;;27.19;32.78
22755;BME280;11544;42.020;23.094;2023-07-28T18:17:03;96814.19;;;27.26;33.30
22755;BME280;11544;42.020;23.094;2023-07-28T18:19:40;96810.84;;;27.23;33.19
22755;BME280;11544;42.020;23.094;2023-07-28T18:22:10;96816.16;;;27.64;32.54
22755;BME280;11544;42.020;23.094;2023-07-28T18:24:40;96811.50;;;27.50;32.41
22755;BME280;11544;42.020;23.094;2023-07-28T18:27:09;96814.84;;;27.03;33.30
22755;BME280;11544;42.020;23.094;2023-07-28T18:29:36;96815.69;;;26.79;33.67
22755;BME280;11544;42.020;23.094;2023-07-28T18:32:03;96820.84;;;27.38;33.11
22755;BME280;11544;42.020;23.094;2023-07-28T18:34:31;96824.91;;;27.34;33.02
22755;BME280;11544;42.020;23.094;2023-07-28T18:37:04;96832.91;;;27.17;32.98
22755;BME280;11544;42.020;23.094;2023-07-28T18:39:38;96830.09;;;27.27;32.85
22755;BME280;11544;42.020;23.094;2023-07-28T20:09:43;96901.97;;;25.06;36.92
22755;BME280;11544;42.020;23.094;2023-07-28T20:12:11;96906.81;;;25.11;36.85
22755;BME280;11544;42.020;23.094;2023-07-28T20:14:40;96900.34;;;25.13;37.06
22755;BME280;11544;42.020;23.094;2023-07-28T20:17:07;96909.78;;;25.44;36.95
22755;BME280;11544;42.020;23.094;2023-07-28T20:19:36;96910.97;;;25.23;37.59
22755;BME280;11544;42.020;23.094;2023-07-28T20:22:04;96918.34;;;25.29;37.67
22755;BME280;11544;42.020;23.094;2023-07-28T20:24:34;96915.16;;;25.70;37.09
22755;BME280;11544;42.020;23.094;2023-07-28T20:27:11;96915.69;;;25.73;36.99
22755;BME280;11544;42.020;23.094;2023-07-28T20:29:42;96927.91;;;25.58;37.17
22755;BME280;11544;42.020;23.094;2023-07-28T20:32:12;96927.16;;;25.48;37.14
